ADDS METAR Data INFO
IDs: Format: Raw Decoded Include TAF

Data at: 1050 UTC 19 Oct 2017

KBJJ 190956Z AUTO 21004KT 10SM CLR 07/05 A3019 RMK AO2 SLP223 T00720050
KBJJ 190856Z AUTO 23003KT 10SM CLR 04/04 A3019 RMK AO2 SLP225 T00440039 55001
KBJJ 190756Z AUTO 19003KT 10SM CLR 04/03 A3018 RMK AO2 SLP223 T00440033
KBJJ 190656Z AUTO 22004KT 10SM CLR 08/05 A3019 RMK AO2 SLP222 T00830050
KBJJ 190556Z AUTO 22004KT 10SM CLR 06/04 A3019 RMK AO2 SLP227 T00560039 10117 20044 53001
KBJJ 190456Z AUTO 23004KT 10SM CLR 10/04 A3018 RMK AO2 SLP221 T01000044 402060017
KBJJ 190356Z AUTO 21005KT 10SM CLR 09/04 A3018 RMK AO2 SLP222 T00940044
KBJJ 190256Z AUTO 00000KT 10SM CLR 05/03 A3019 RMK AO2 SLP226 T00500033 57006
KBJJ 190156Z AUTO 18003KT 10SM CLR 07/04 A3019 RMK AO2 SLP228 T00670044
KBJJ 190056Z AUTO 18003KT 10SM CLR 07/05 A3021 RMK AO2 SLP235 T00670050
KBJJ 182356Z AUTO 18005KT 10SM CLR 09/05 A3021 RMK AO2 SLP237 T00890050 10206 20083 56002
KBJJ 182256Z AUTO 19005KT 8SM CLR 16/04 A3021 RMK AO2 SLP234 T01560039
KBJJ 182156Z AUTO 18009KT 10SM CLR 18/04 A3020 RMK AO2 SLP230 T01830039
KBJJ 182056Z AUTO 18007KT 10SM CLR 20/04 A3022 RMK AO2 SLP234 T02000039 56021
KBJJ 181956Z AUTO 18011G16KT 10SM CLR 20/04 A3023 RMK AO2 SLP237 T02000039
KBJJ 181856Z AUTO 21007KT 10SM CLR 19/06 A3025 RMK AO2 SLP244 T01940056
KBJJ 181756Z AUTO 19008KT 10SM CLR 19/05 A3028 RMK AO2 SLP255 T01890050 10194 20017 58018
KBJJ 181656Z AUTO 21009KT 10SM CLR 18/06 A3031 RMK AO2 SLP266 T01830056
KBJJ 181556Z AUTO 21008KT 10SM CLR 17/05 A3033 RMK AO2 SLP274 T01670050
KBJJ 181456Z AUTO 21005KT 10SM CLR 15/06 A3033 RMK AO2 SLP275 T01500056 50003
KBJJ 181356Z AUTO VRB03KT 10SM CLR 12/06 A3034 RMK AO2 SLP277 T01170061
KBJJ 181256Z AUTO 00000KT 10SM CLR 08/06 A3034 RMK AO2 SLP277 T00780061
KBJJ 181156Z AUTO 00000KT 10SM CLR 02/01 A3032 RMK AO2 SLP277 T00170011 10067 20017 51011
KBJJ 181056Z AUTO 00000KT 10SM CLR 02/01 A3032 RMK AO2 SLP272 T00220011
KBJJ 180956Z AUTO 00000KT 10SM CLR 02/02 A3031 RMK AO2 SLP267 T00220017
KBJJ 180856Z AUTO 00000KT 10SM CLR 03/02 A3029 RMK AO2 SLP261 T00280022 53001
KBJJ 180756Z AUTO 19003KT 10SM CLR 06/04 A3028 RMK AO2 SLP255 T00560039
KBJJ 180656Z AUTO 20003KT 10SM CLR 03/02 A3028 RMK AO2 SLP257 T00330022
KBJJ 180556Z AUTO 20003KT 10SM CLR 04/03 A3029 RMK AO2 SLP259 T00390028 10106 20033 51004
KBJJ 180456Z AUTO 00000KT 10SM CLR 04/03 A3029 RMK AO2 SLP259 T00390028 401830006
KBJJ 180356Z AUTO 00000KT 10SM CLR 04/03 A3028 RMK AO2 SLP259 T00440033
KBJJ 180256Z AUTO 20003KT 10SM CLR 06/04 A3028 RMK AO2 SLP257 T00560039 53012
KBJJ 180156Z AUTO 23003KT 10SM CLR 08/04 A3026 RMK AO2 SLP252 T00830044
KBJJ 180056Z AUTO 22005KT 10SM CLR 11/04 A3024 RMK AO2 SLP247 T01060044
KBJJ 172356Z AUTO 20003KT 10SM CLR 08/05 A3024 RMK AO2 RAB08E18 SLP248 P0000 60000 T00780050 10183 20078 53003
KBJJ 172256Z AUTO 22005KT 6SM HZ CLR 13/03 A3023 RMK AO2 SLP243 T01280033